sensor_id;sensor_type;location;lat;lon;timestamp;pressure;altitude;pressure_sealevel;temperature;humidity
67434;BME280;54305;47.950;6.572;2023-01-29T00:00:03;95138.44;;;-1.38;100.00
67434;BME280;54305;47.950;6.572;2023-01-29T00:02:33;95151.00;;;-1.34;100.00
67434;BME280;54305;47.950;6.572;2023-01-29T00:04:59;95149.22;;;-1.32;100.00
67434;BME280;54305;47.950;6.572;2023-01-29T00:07:24;95140.63;;;-1.31;100.00
67434;BME280;54305;47.950;6.572;2023-01-29T00:09:49;95149.03;;;-1.29;100.00
67434;BME280;54305;47.950;6.572;2023-01-29T00:12:15;95154.03;;;-1.26;100.00
67434;BME280;54305;47.950;6.572;2023-01-29T00:14:40;95153.91;;;-1.23;100.00
67434;BME280;54305;47.950;6.572;2023-01-29T00:17:05;95143.38;;;-1.17;100.00
67434;BME280;54305;47.950;6.572;2023-01-29T00:19:30;95147.59;;;-1.16;100.00
67434;BME280;54305;47.950;6.572;2023-01-29T00:21:56;95150.13;;;-1.16;100.00
67434;BME280;54305;47.950;6.572;2023-01-29T00:24:21;95151.84;;;-1.16;100.00
67434;BME280;54305;47.950;6.572;2023-01-29T00:26:47;95148.50;;;-1.17;100.00
67434;BME280;54305;47.950;6.572;2023-01-29T00:29:14;95152.09;;;-1.21;100.00
67434;BME280;54305;47.950;6.572;2023-01-29T00:31:39;95151.25;;;-1.21;100.00
67434;BME280;54305;47.950;6.572;2023-01-29T00:34:07;95152.09;;;-1.21;100.00
67434;BME280;54305;47.950;6.572;2023-01-29T00:36:33;95148.63;;;-1.20;100.00
67434;BME280;54305;47.950;6.572;2023-01-29T00:38:59;95146.84;;;-1.18;100.00
67434;BME280;54305;47.950;6.572;2023-01-29T00:41:27;95146.00;;;-1.18;100.00
67434;BME280;54305;47.950;6.572;2023-01-29T00:44:11;95153.59;;;-1.17;100.00
67434;BME280;54305;47.950;6.572;2023-01-29T00:46:55;95139.25;;;-1.19;100.00
67434;BME280;54305;47.950;6.572;2023-01-29T00:49:20;95142.72;;;-1.20;100.00
67434;BME280;54305;47.950;6.572;2023-01-29T00:51:46;95139.59;;;-1.27;100.00
67434;BME280;54305;47.950;6.572;2023-01-29T00:54:34;95141.63;;;-1.16;100.00
67434;BME280;54305;47.950;6.572;2023-01-29T00:56:59;95140.34;;;-1.25;100.00
67434;BME280;54305;47.950;6.572;2023-01-29T00:59:24;95144.47;;;-1.22;100.00
67434;BME280;54305;47.950;6.572;2023-01-29T01:01:50;95143.69;;;-1.23;100.00
67434;BME280;54305;47.950;6.572;2023-01-29T01:04:33;95145.47;;;-1.25;100.00
67434;BME280;54305;47.950;6.572;2023-01-29T01:06:59;95131.03;;;-1.26;100.00
67434;BME280;54305;47.950;6.572;2023-01-29T01:09:24;95125.31;;;-1.31;100.00
67434;BME280;54305;47.950;6.572;2023-01-29T01:12:08;95130.72;;;-1.37;100.00
67434;BME280;54305;47.950;6.572;2023-01-29T01:14:33;95131.88;;;-1.44;100.00
67434;BME280;54305;47.950;6.572;2023-01-29T01:17:01;95134.00;;;-1.35;100.00
67434;BME280;54305;47.950;6.572;2023-01-29T01:19:27;95138.81;;;-1.46;100.00
67434;BME280;54305;47.950;6.572;2023-01-29T01:21:52;95134.84;;;-1.53;100.00
67434;BME280;54305;47.950;6.572;2023-01-29T01:24:17;95138.31;;;-1.54;100.00
67434;BME280;54305;47.950;6.572;2023-01-29T01:26:44;95134.59;;;-1.65;100.00
67434;BME280;54305;47.950;6.572;2023-01-29T01:29:12;95127.28;;;-1.73;100.00
67434;BME280;54305;47.950;6.572;2023-01-29T01:31:37;95132.69;;;-1.79;100.00
67434;BME280;54305;47.950;6.572;2023-01-29T01:34:03;95131.50;;;-1.72;100.00
67434;BME280;54305;47.950;6.572;2023-01-29T01:36:28;95131.44;;;-1.89;100.00
67434;BME280;54305;47.950;6.572;2023-01-29T01:38:53;95128.13;;;-1.91;100.00
67434;BME280;54305;47.950;6.572;2023-01-29T01:41:19;95137.59;;;-2.31;100.00
67434;BME280;54305;47.950;6.572;2023-01-29T01:43:47;95140.72;;;-2.45;100.00
67434;BME280;54305;47.950;6.572;2023-01-29T01:46:13;95139.28;;;-2.50;100.00
67434;BME280;54305;47.950;6.572;2023-01-29T01:48:39;95143.00;;;-2.59;100.00
67434;BME280;54305;47.950;6.572;2023-01-29T01:51:04;95144.94;;;-2.64;100.00
67434;BME280;54305;47.950;6.572;2023-01-29T01:53:31;95155.47;;;-2.51;100.00
67434;BME280;54305;47.950;6.572;2023-01-29T01:56:00;95153.09;;;-2.56;100.00
67434;BME280;54305;47.950;6.572;2023-01-29T01:58:27;95143.91;;;-2.40;100.00
67434;BME280;54305;47.950;6.572;2023-01-29T02:00:54;95148.38;;;-2.25;100.00
67434;BME280;54305;47.950;6.572;2023-01-29T02:03:20;95140.22;;;-2.33;100.00
67434;BME280;54305;47.950;6.572;2023-01-29T02:06:05;95143.22;;;-2.43;100.00
67434;BME280;54305;47.950;6.572;2023-01-29T02:09:04;95151.75;;;-2.44;100.00
67434;BME280;54305;47.950;6.572;2023-01-29T02:11:49;95148.69;;;-2.52;100.00
67434;BME280;54305;47.950;6.572;2023-01-29T02:14:15;95160.84;;;-2.59;100.00
67434;BME280;54305;47.950;6.572;2023-01-29T02:16:40;95164.47;;;-2.63;100.00
67434;BME280;54305;47.950;6.572;2023-01-29T02:19:08;95162.41;;;-2.75;100.00
67434;BME280;54305;47.950;6.572;2023-01-29T02:21:43;95161.00;;;-2.82;100.00
67434;BME280;54305;47.950;6.572;2023-01-29T02:32:31;95165.78;;;-3.16;100.00
67434;BME280;54305;47.950;6.572;2023-01-29T02:35:10;95162.44;;;-2.96;100.00
67434;BME280;54305;47.950;6.572;2023-01-29T02:37:57;95177.97;;;-3.02;100.00
67434;BME280;54305;47.950;6.572;2023-01-29T02:40:28;95166.38;;;-3.09;100.00
67434;BME280;54305;47.950;6.572;2023-01-29T02:46:14;95168.84;;;-3.08;100.00
67434;BME280;54305;47.950;6.572;2023-01-29T02:51:29;95169.56;;;-3.04;100.00
67434;BME280;54305;47.950;6.572;2023-01-29T02:54:03;95155.94;;;-3.03;100.00
67434;BME280;54305;47.950;6.572;2023-01-29T02:56:35;95163.13;;;-2.93;100.00
67434;BME280;54305;47.950;6.572;2023-01-29T02:59:04;95173.72;;;-3.02;100.00
67434;BME280;54305;47.950;6.572;2023-01-29T03:01:37;95159.59;;;-3.10;100.00
67434;BME280;54305;47.950;6.572;2023-01-29T03:04:10;95167.81;;;-3.24;100.00
67434;BME280;54305;47.950;6.572;2023-01-29T03:06:58;95173.59;;;-3.42;100.00
67434;BME280;54305;47.950;6.572;2023-01-29T03:09:24;95174.44;;;-3.41;100.00
67434;BME280;54305;47.950;6.572;2023-01-29T03:11:53;95173.94;;;-3.51;100.00
67434;BME280;54305;47.950;6.572;2023-01-29T03:14:30;95183.56;;;-3.57;100.00
67434;BME280;54305;47.950;6.572;2023-01-29T03:17:17;95172.63;;;-3.61;100.00
67434;BME280;54305;47.950;6.572;2023-01-29T03:19:43;95179.41;;;-3.60;100.00
67434;BME280;54305;47.950;6.572;2023-01-29T03:22:10;95172.28;;;-3.52;100.00
67434;BME280;54305;47.950;6.572;2023-01-29T03:24:42;95175.41;;;-3.67;100.00
67434;BME280;54305;47.950;6.572;2023-01-29T03:27:30;95174.38;;;-3.61;100.00
67434;BME280;54305;47.950;6.572;2023-01-29T03:30:16;95169.56;;;-3.69;100.00
67434;BME280;54305;47.950;6.572;2023-01-29T03:33:02;95173.34;;;-3.79;100.00
67434;BME280;54305;47.950;6.572;2023-01-29T03:35:29;95175.81;;;-3.77;100.00
67434;BME280;54305;47.950;6.572;2023-01-29T03:38:00;95178.44;;;-3.79;100.00
67434;BME280;54305;47.950;6.572;2023-01-29T03:40:28;95176.63;;;-3.77;100.00
67434;BME280;54305;47.950;6.572;2023-01-29T03:43:21;95183.03;;;-3.67;100.00
67434;BME280;54305;47.950;6.572;2023-01-29T03:45:59;95179.09;;;-3.74;100.00
67434;BME280;54305;47.950;6.572;2023-01-29T03:51:17;95178.63;;;-3.85;100.00
67434;BME280;54305;47.950;6.572;2023-01-29T03:53:52;95180.41;;;-3.87;100.00
67434;BME280;54305;47.950;6.572;2023-01-29T03:58:54;95174.94;;;-3.99;100.00
67434;BME280;54305;47.950;6.572;2023-01-29T04:01:33;95178.38;;;-4.00;100.00
67434;BME280;54305;47.950;6.572;2023-01-29T04:06:28;95177.72;;;-3.61;100.00
67434;BME280;54305;47.950;6.572;2023-01-29T04:09:10;95184.59;;;-3.63;100.00
67434;BME280;54305;47.950;6.572;2023-01-29T04:11:37;95183.25;;;-3.50;100.00
67434;BME280;54305;47.950;6.572;2023-01-29T04:14:04;95182.72;;;-3.58;100.00
67434;BME280;54305;47.950;6.572;2023-01-29T04:16:32;95184.59;;;-3.63;100.00
67434;BME280;54305;47.950;6.572;2023-01-29T04:18:59;95188.28;;;-3.70;100.00
67434;BME280;54305;47.950;6.572;2023-01-29T04:21:24;95190.50;;;-3.84;100.00
67434;BME280;54305;47.950;6.572;2023-01-29T04:23:51;95192.38;;;-3.89;100.00
67434;BME280;54305;47.950;6.572;2023-01-29T04:26:23;95198.88;;;-3.82;100.00
67434;BME280;54305;47.950;6.572;2023-01-29T04:31:22;95189.25;;;-3.97;100.00
67434;BME280;54305;47.950;6.572;2023-01-29T04:36:51;95188.28;;;-3.70;100.00
67434;BME280;54305;47.950;6.572;2023-01-29T04:39:12;95187.16;;;-3.86;100.00
67434;BME280;54305;47.950;6.572;2023-01-29T04:44:14;95187.38;;;-3.92;100.00
67434;BME280;54305;47.950;6.572;2023-01-29T04:46:51;95201.19;;;-3.99;100.00
67434;BME280;54305;47.950;6.572;2023-01-29T04:49:32;95199.75;;;-4.06;100.00
67434;BME280;54305;47.950;6.572;2023-01-29T04:54:41;95198.72;;;-4.00;100.00
67434;BME280;54305;47.950;6.572;2023-01-29T04:59:49;95197.94;;;-3.79;100.00
67434;BME280;54305;47.950;6.572;2023-01-29T05:02:15;95198.88;;;-3.82;100.00
67434;BME280;54305;47.950;6.572;2023-01-29T05:04:41;95203.97;;;-3.82;100.00
67434;BME280;54305;47.950;6.572;2023-01-29T05:07:10;95197.09;;;-3.80;100.00
67434;BME280;54305;47.950;6.572;2023-01-29T05:09:36;95186.78;;;-3.75;100.00
67434;BME280;54305;47.950;6.572;2023-01-29T05:12:04;95183.19;;;-3.70;100.00
67434;BME280;54305;47.950;6.572;2023-01-29T05:14:31;95203.31;;;-3.64;100.00
67434;BME280;54305;47.950;6.572;2023-01-29T05:16:57;95194.44;;;-3.54;100.00
67434;BME280;54305;47.950;6.572;2023-01-29T05:19:26;95189.09;;;-3.48;100.00
67434;BME280;54305;47.950;6.572;2023-01-29T05:21:51;95187.47;;;-3.49;100.00
67434;BME280;54305;47.950;6.572;2023-01-29T05:24:17;95180.56;;;-3.47;100.00
67434;BME280;54305;47.950;6.572;2023-01-29T05:26:43;95176.09;;;-3.40;100.00
67434;BME280;54305;47.950;6.572;2023-01-29T05:29:29;95179.53;;;-3.41;100.00
67434;BME280;54305;47.950;6.572;2023-01-29T05:31:54;95176.94;;;-3.40;100.00
67434;BME280;54305;47.950;6.572;2023-01-29T05:34:19;95176.94;;;-3.40;100.00
67434;BME280;54305;47.950;6.572;2023-01-29T05:36:44;95182.72;;;-3.36;100.00
67434;BME280;54305;47.950;6.572;2023-01-29T05:39:10;95185.06;;;-3.32;100.00
67434;BME280;54305;47.950;6.572;2023-01-29T05:41:35;95193.63;;;-3.33;100.00
67434;BME280;54305;47.950;6.572;2023-01-29T05:44:00;95195.41;;;-3.35;100.00
67434;BME280;54305;47.950;6.572;2023-01-29T05:46:25;95195.50;;;-3.38;100.00
67434;BME280;54305;47.950;6.572;2023-01-29T05:48:51;95190.41;;;-3.38;100.00
67434;BME280;54305;47.950;6.572;2023-01-29T05:51:16;95195.50;;;-3.38;100.00
67434;BME280;54305;47.950;6.572;2023-01-29T05:53:41;95186.97;;;-3.37;100.00
67434;BME280;54305;47.950;6.572;2023-01-29T05:56:07;95192.19;;;-3.40;100.00
67434;BME280;54305;47.950;6.572;2023-01-29T05:58:33;95185.22;;;-3.35;100.00
67434;BME280;54305;47.950;6.572;2023-01-29T06:01:06;95180.13;;;-3.35;100.00
67434;BME280;54305;47.950;6.572;2023-01-29T06:03:32;95180.13;;;-3.35;100.00
67434;BME280;54305;47.950;6.572;2023-01-29T06:05:57;95168.41;;;-3.39;100.00
67434;BME280;54305;47.950;6.572;2023-01-29T06:08:22;95168.44;;;-3.40;100.00
67434;BME280;54305;47.950;6.572;2023-01-29T06:10:47;95154.41;;;-3.50;100.00
67434;BME280;54305;47.950;6.572;2023-01-29T06:13:12;95159.16;;;-3.63;100.00
67434;BME280;54305;47.950;6.572;2023-01-29T06:15:38;95165.88;;;-3.62;100.00
67434;BME280;54305;47.950;6.572;2023-01-29T06:18:04;95174.31;;;-3.60;100.00
67434;BME280;54305;47.950;6.572;2023-01-29T06:20:29;95178.44;;;-3.79;100.00
67434;BME280;54305;47.950;6.572;2023-01-29T06:22:54;95196.09;;;-3.99;100.00
67434;BME280;54305;47.950;6.572;2023-01-29T06:25:19;95211.81;;;-4.11;100.00
67434;BME280;54305;47.950;6.572;2023-01-29T06:27:44;95211.09;;;-4.39;100.00
67434;BME280;54305;47.950;6.572;2023-01-29T06:30:10;95214.63;;;-4.43;100.00
67434;BME280;54305;47.950;6.572;2023-01-29T06:32:35;95207.88;;;-4.44;100.00
67434;BME280;54305;47.950;6.572;2023-01-29T06:35:00;95216.78;;;-4.57;100.00
67434;BME280;54305;47.950;6.572;2023-01-29T06:37:26;95227.06;;;-4.60;100.00
67434;BME280;54305;47.950;6.572;2023-01-29T06:39:51;95216.69;;;-4.54;100.00
67434;BME280;54305;47.950;6.572;2023-01-29T06:42:16;95214.63;;;-4.43;100.00
67434;BME280;54305;47.950;6.572;2023-01-29T06:44:42;95216.47;;;-4.48;100.00
67434;BME280;54305;47.950;6.572;2023-01-29T06:47:07;95230.88;;;-4.47;100.00
67434;BME280;54305;47.950;6.572;2023-01-29T06:49:32;95234.28;;;-4.48;100.00
67434;BME280;54305;47.950;6.572;2023-01-29T06:51:57;95237.56;;;-4.44;100.00
67434;BME280;54305;47.950;6.572;2023-01-29T06:54:22;95236.72;;;-4.45;100.00
67434;BME280;54305;47.950;6.572;2023-01-29T06:56:48;95245.03;;;-4.40;100.00
67434;BME280;54305;47.950;6.572;2023-01-29T06:59:13;95244.00;;;-4.34;100.00
67434;BME280;54305;47.950;6.572;2023-01-29T07:01:38;95251.47;;;-4.30;100.00
67434;BME280;54305;47.950;6.572;2023-01-29T07:04:08;95253.03;;;-4.26;100.00
67434;BME280;54305;47.950;6.572;2023-01-29T07:06:33;95252.13;;;-4.25;100.00
67434;BME280;54305;47.950;6.572;2023-01-29T07:08:58;95261.00;;;-4.12;100.00
67434;BME280;54305;47.950;6.572;2023-01-29T07:11:24;95250.84;;;-4.12;100.00
67434;BME280;54305;47.950;6.572;2023-01-29T07:13:49;95245.75;;;-4.12;100.00
67434;BME280;54305;47.950;6.572;2023-01-29T07:16:14;95246.44;;;-4.07;100.00
67434;BME280;54305;47.950;6.572;2023-01-29T07:18:40;95249.63;;;-4.02;100.00
67434;BME280;54305;47.950;6.572;2023-01-29T07:21:05;95251.88;;;-3.93;100.00
67434;BME280;54305;47.950;6.572;2023-01-29T07:23:31;95254.91;;;-3.83;100.00
67434;BME280;54305;47.950;6.572;2023-01-29T07:25:59;95256.28;;;-3.75;100.00
67434;BME280;54305;47.950;6.572;2023-01-29T07:28:24;95248.50;;;-3.70;100.00
67434;BME280;54305;47.950;6.572;2023-01-29T07:30:49;95255.94;;;-3.66;100.00
67434;BME280;54305;47.950;6.572;2023-01-29T07:33:15;95253.97;;;-3.58;100.00
67434;BME280;54305;47.950;6.572;2023-01-29T07:35:41;95247.09;;;-3.56;100.00
67434;BME280;54305;47.950;6.572;2023-01-29T07:38:07;95240.03;;;-3.48;100.00
67434;BME280;54305;47.950;6.572;2023-01-29T07:40:32;95248.22;;;-3.40;100.00
67434;BME280;54305;47.950;6.572;2023-01-29T07:43:01;95236.00;;;-3.32;100.00
67434;BME280;54305;47.950;6.572;2023-01-29T07:45:30;95237.09;;;-3.16;100.00
67434;BME280;54305;47.950;6.572;2023-01-29T07:47:55;95246.50;;;-3.18;100.00
67434;BME280;54305;47.950;6.572;2023-01-29T07:50:24;95251.44;;;-3.13;100.00
67434;BME280;54305;47.950;6.572;2023-01-29T07:52:50;95250.53;;;-2.91;100.00
67434;BME280;54305;47.950;6.572;2023-01-29T07:55:16;95251.19;;;-2.86;100.00
67434;BME280;54305;47.950;6.572;2023-01-29T07:57:41;95253.75;;;-2.86;100.00
67434;BME280;54305;47.950;6.572;2023-01-29T08:00:07;95250.59;;;-2.71;100.00
67434;BME280;54305;47.950;6.572;2023-01-29T08:02:33;95255.84;;;-2.54;100.00
67434;BME280;54305;47.950;6.572;2023-01-29T08:04:58;95257.50;;;-2.53;100.00
67434;BME280;54305;47.950;6.572;2023-01-29T08:07:23;95258.91;;;-2.46;100.00
67434;BME280;54305;47.950;6.572;2023-01-29T08:09:48;95266.69;;;-2.49;100.00
67434;BME280;54305;47.950;6.572;2023-01-29T08:12:14;95267.25;;;-2.42;100.00
67434;BME280;54305;47.950;6.572;2023-01-29T08:14:39;95271.53;;;-2.43;100.00
67434;BME280;54305;47.950;6.572;2023-01-29T08:17:04;95272.88;;;-2.54;100.00
67434;BME280;54305;47.950;6.572;2023-01-29T08:19:30;95278.91;;;-2.57;100.00
67434;BME280;54305;47.950;6.572;2023-01-29T08:21:55;95292.78;;;-2.64;100.00
67434;BME280;54305;47.950;6.572;2023-01-29T08:24:20;95295.97;;;-2.59;100.00
67434;BME280;54305;47.950;6.572;2023-01-29T08:26:45;95303.50;;;-2.56;100.00
67434;BME280;54305;47.950;6.572;2023-01-29T08:29:11;95301.81;;;-2.55;100.00
67434;BME280;54305;47.950;6.572;2023-01-29T08:31:36;95298.59;;;-2.39;100.00
67434;BME280;54305;47.950;6.572;2023-01-29T08:34:02;95293.09;;;-2.30;100.00
67434;BME280;54305;47.950;6.572;2023-01-29T08:36:27;95307.28;;;-2.03;100.00
67434;BME280;54305;47.950;6.572;2023-01-29T08:38:52;95298.94;;;-1.86;100.00
67434;BME280;54305;47.950;6.572;2023-01-29T08:41:18;95306.28;;;-1.60;100.00
67434;BME280;54305;47.950;6.572;2023-01-29T08:43:43;95309.38;;;-1.34;100.00
67434;BME280;54305;47.950;6.572;2023-01-29T08:46:08;95313.56;;;-1.13;97.62
67434;BME280;54305;47.950;6.572;2023-01-29T08:48:34;95316.31;;;-0.99;96.15
67434;BME280;54305;47.950;6.572;2023-01-29T08:51:00;95319.69;;;-0.80;96.38
67434;BME280;54305;47.950;6.572;2023-01-29T08:53:26;95315.31;;;-0.59;97.47
67434;BME280;54305;47.950;6.572;2023-01-29T08:55:51;95316.66;;;-0.34;93.87
67434;BME280;54305;47.950;6.572;2023-01-29T08:58:17;95331.69;;;-0.45;92.02
67434;BME280;54305;47.950;6.572;2023-01-29T09:00:42;95329.38;;;-0.32;92.10
67434;BME280;54305;47.950;6.572;2023-01-29T09:03:08;95319.56;;;-0.41;92.17
67434;BME280;54305;47.950;6.572;2023-01-29T09:05:34;95320.72;;;-0.30;91.63
67434;BME280;54305;47.950;6.572;2023-01-29T09:07:59;95314.25;;;-0.20;90.78
67434;BME280;54305;47.950;6.572;2023-01-29T09:10:25;95316.38;;;0.06;90.14
67434;BME280;54305;47.950;6.572;2023-01-29T09:12:50;95313.97;;;0.38;89.91
67434;BME280;54305;47.950;6.572;2023-01-29T09:15:15;95316.00;;;0.63;88.64
67434;BME280;54305;47.950;6.572;2023-01-29T09:17:40;95318.75;;;0.61;87.42
67434;BME280;54305;47.950;6.572;2023-01-29T09:20:07;95316.41;;;0.56;86.91
67434;BME280;54305;47.950;6.572;2023-01-29T09:22:33;95332.75;;;0.53;87.64
67434;BME280;54305;47.950;6.572;2023-01-29T09:24:58;95319.09;;;0.70;86.61
67434;BME280;54305;47.950;6.572;2023-01-29T09:27:23;95317.97;;;0.76;86.27
67434;BME280;54305;47.950;6.572;2023-01-29T09:29:48;95321.00;;;1.15;86.11
67434;BME280;54305;47.950;6.572;2023-01-29T09:32:14;95313.31;;;1.46;83.63
67434;BME280;54305;47.950;6.572;2023-01-29T09:34:39;95306.41;;;1.77;82.00
67434;BME280;54305;47.950;6.572;2023-01-29T09:37:04;95301.88;;;1.96;81.85
67434;BME280;54305;47.950;6.572;2023-01-29T09:39:30;95307.13;;;2.24;80.20
67434;BME280;54305;47.950;6.572;2023-01-29T09:42:02;95304.16;;;2.60;78.30
67434;BME280;54305;47.950;6.572;2023-01-29T09:47:14;95294.75;;;3.29;75.79
67434;BME280;54305;47.950;6.572;2023-01-29T09:49:49;95296.53;;;3.55;74.38
67434;BME280;54305;47.950;6.572;2023-01-29T10:00:03;95279.91;;;2.50;72.85
67434;BME280;54305;47.950;6.572;2023-01-29T10:02:46;95285.16;;;1.60;76.90
67434;BME280;54305;47.950;6.572;2023-01-29T10:05:20;95284.00;;;1.95;77.88
67434;BME280;54305;47.950;6.572;2023-01-29T10:10:50;95284.41;;;1.27;80.90
67434;BME280;54305;47.950;6.572;2023-01-29T10:13:26;95287.88;;;1.57;79.72
67434;BME280;54305;47.950;6.572;2023-01-29T10:16:30;95291.78;;;1.33;79.39
67434;BME280;54305;47.950;6.572;2023-01-29T10:23:44;95286.75;;;1.92;75.75
67434;BME280;54305;47.950;6.572;2023-01-29T10:26:11;95284.69;;;1.83;76.04
67434;BME280;54305;47.950;6.572;2023-01-29T10:28:41;95281.38;;;1.81;76.96
67434;BME280;54305;47.950;6.572;2023-01-29T10:31:11;95279.28;;;1.42;77.71
67434;BME280;54305;47.950;6.572;2023-01-29T10:33:39;95273.69;;;1.05;78.26
67434;BME280;54305;47.950;6.572;2023-01-29T10:36:06;95266.03;;;1.50;78.20
67434;BME280;54305;47.950;6.572;2023-01-29T10:43:38;95249.50;;;1.99;76.07
67434;BME280;54305;47.950;6.572;2023-01-29T10:51:14;95243.53;;;2.42;74.18
67434;BME280;54305;47.950;6.572;2023-01-29T10:53:45;95241.59;;;1.88;76.35
67434;BME280;54305;47.950;6.572;2023-01-29T10:58:45;95248.34;;;1.30;79.19
67434;BME280;54305;47.950;6.572;2023-01-29T11:01:12;95248.94;;;1.64;78.09
67434;BME280;54305;47.950;6.572;2023-01-29T11:03:38;95250.91;;;1.75;77.04
67434;BME280;54305;47.950;6.572;2023-01-29T11:06:20;95244.47;;;2.55;73.99
67434;BME280;54305;47.950;6.572;2023-01-29T11:08:55;95251.22;;;2.28;74.24
67434;BME280;54305;47.950;6.572;2023-01-29T11:11:30;95246.47;;;1.63;78.10
67434;BME280;54305;47.950;6.572;2023-01-29T11:14:03;95247.84;;;1.39;80.03
67434;BME280;54305;47.950;6.572;2023-01-29T11:16:31;95244.16;;;1.58;79.81
67434;BME280;54305;47.950;6.572;2023-01-29T11:19:03;95251.28;;;0.60;82.26
67434;BME280;54305;47.950;6.572;2023-01-29T11:21:28;95249.13;;;0.52;83.12
67434;BME280;54305;47.950;6.572;2023-01-29T11:24:27;95241.78;;;0.29;84.87
67434;BME280;54305;47.950;6.572;2023-01-29T11:26:46;95230.63;;;0.78;84.15
67434;BME280;54305;47.950;6.572;2023-01-29T11:29:31;95234.22;;;0.43;85.50
67434;BME280;54305;47.950;6.572;2023-01-29T11:31:58;95225.81;;;0.57;85.57
67434;BME280;54305;47.950;6.572;2023-01-29T11:34:27;95222.03;;;0.79;83.66
67434;BME280;54305;47.950;6.572;2023-01-29T11:36:57;95224.34;;;0.68;84.84
67434;BME280;54305;47.950;6.572;2023-01-29T11:39:24;95228.66;;;1.15;82.62
67434;BME280;54305;47.950;6.572;2023-01-29T11:44:34;95231.16;;;1.01;82.77
67434;BME280;54305;47.950;6.572;2023-01-29T11:49:33;95214.75;;;0.88;83.63
67434;BME280;54305;47.950;6.572;2023-01-29T11:52:00;95217.91;;;1.24;81.05
67434;BME280;54305;47.950;6.572;2023-01-29T12:02:32;95222.53;;;0.86;85.79
67434;BME280;54305;47.950;6.572;2023-01-29T12:05:03;95215.97;;;0.49;85.97
67434;BME280;54305;47.950;6.572;2023-01-29T12:07:30;95214.75;;;0.57;85.71
67434;BME280;54305;47.950;6.572;2023-01-29T12:09:56;95211.94;;;0.77;85.04
67434;BME280;54305;47.950;6.572;2023-01-29T12:12:26;95212.44;;;0.68;87.38
67434;BME280;54305;47.950;6.572;2023-01-29T12:15:02;95217.34;;;0.39;87.56
67434;BME280;54305;47.950;6.572;2023-01-29T12:17:28;95211.38;;;0.23;87.82
67434;BME280;54305;47.950;6.572;2023-01-29T12:19:57;95209.91;;;0.50;88.79
67434;BME280;54305;47.950;6.572;2023-01-29T12:24:50;95216.03;;;-0.17;89.89
67434;BME280;54305;47.950;6.572;2023-01-29T12:37:20;95179.88;;;1.75;81.80
67434;BME280;54305;47.950;6.572;2023-01-29T12:39:48;95166.44;;;2.96;76.98
67434;BME280;54305;47.950;6.572;2023-01-29T12:44:39;95183.16;;;1.18;79.92
67434;BME280;54305;47.950;6.572;2023-01-29T12:47:11;95192.75;;;0.83;83.84
67434;BME280;54305;47.950;6.572;2023-01-29T12:49:38;95188.78;;;0.63;83.69
67434;BME280;54305;47.950;6.572;2023-01-29T12:54:36;95178.69;;;0.59;84.99
67434;BME280;54305;47.950;6.572;2023-01-29T12:57:05;95179.50;;;0.44;86.74
67434;BME280;54305;47.950;6.572;2023-01-29T12:59:38;95187.78;;;0.49;85.59
67434;BME280;54305;47.950;6.572;2023-01-29T13:04:42;95176.66;;;1.86;80.69
67434;BME280;54305;47.950;6.572;2023-01-29T13:07:13;95168.03;;;3.77;73.00
67434;BME280;54305;47.950;6.572;2023-01-29T13:09:41;95169.69;;;3.78;69.38
67434;BME280;54305;47.950;6.572;2023-01-29T13:12:11;95168.34;;;1.96;75.48
67434;BME280;54305;47.950;6.572;2023-01-29T13:14:53;95165.97;;;3.04;73.85
67434;BME280;54305;47.950;6.572;2023-01-29T13:17:23;95162.91;;;1.27;78.21
67434;BME280;54305;47.950;6.572;2023-01-29T13:19:51;95163.41;;;1.34;78.84
67434;BME280;54305;47.950;6.572;2023-01-29T13:22:24;95154.34;;;1.72;77.05
67434;BME280;54305;47.950;6.572;2023-01-29T13:24:49;95158.44;;;1.90;76.60
67434;BME280;54305;47.950;6.572;2023-01-29T13:27:25;95145.69;;;2.45;75.37
67434;BME280;54305;47.950;6.572;2023-01-29T13:29:51;95146.84;;;2.67;73.49
67434;BME280;54305;47.950;6.572;2023-01-29T13:32:20;95139.25;;;2.38;73.42
67434;BME280;54305;47.950;6.572;2023-01-29T13:34:47;95141.47;;;2.30;73.31
67434;BME280;54305;47.950;6.572;2023-01-29T13:37:17;95137.38;;;1.70;76.64
67434;BME280;54305;47.950;6.572;2023-01-29T13:39:50;95131.19;;;2.02;74.98
67434;BME280;54305;47.950;6.572;2023-01-29T13:42:18;95130.28;;;2.17;76.14
67434;BME280;54305;47.950;6.572;2023-01-29T13:44:47;95135.25;;;1.19;78.98
67434;BME280;54305;47.950;6.572;2023-01-29T13:47:24;95122.00;;;0.66;81.50
67434;BME280;54305;47.950;6.572;2023-01-29T13:54:53;95130.56;;;0.96;81.58
67434;BME280;54305;47.950;6.572;2023-01-29T13:57:32;95132.22;;;0.34;83.56
67434;BME280;54305;47.950;6.572;2023-01-29T13:59:57;95136.91;;;0.26;84.83
67434;BME280;54305;47.950;6.572;2023-01-29T14:04:48;95141.47;;;0.21;86.61
67434;BME280;54305;47.950;6.572;2023-01-29T14:10:00;95138.41;;;-0.18;88.39
67434;BME280;54305;47.950;6.572;2023-01-29T14:12:31;95132.22;;;-0.14;88.62
67434;BME280;54305;47.950;6.572;2023-01-29T14:17:21;95138.41;;;-0.18;89.05
67434;BME280;54305;47.950;6.572;2023-01-29T14:19:58;95146.06;;;-0.01;88.46
67434;BME280;54305;47.950;6.572;2023-01-29T14:22:26;95147.81;;;-0.18;87.60
67434;BME280;54305;47.950;6.572;2023-01-29T14:24:53;95147.44;;;-0.28;88.72
67434;BME280;54305;47.950;6.572;2023-01-29T14:27:21;95143.88;;;-0.41;89.70
67434;BME280;54305;47.950;6.572;2023-01-29T14:29:46;95143.66;;;-0.53;89.84
67434;BME280;54305;47.950;6.572;2023-01-29T14:32:19;95147.34;;;-0.59;90.42
67434;BME280;54305;47.950;6.572;2023-01-29T14:34:48;95147.34;;;-0.59;91.80
67434;BME280;54305;47.950;6.572;2023-01-29T14:39:47;95145.97;;;-0.49;91.72
67434;BME280;54305;47.950;6.572;2023-01-29T14:42:35;95153.63;;;-0.66;92.40
67434;BME280;54305;47.950;6.572;2023-01-29T14:50:38;95161.00;;;-0.26;89.50
67434;BME280;54305;47.950;6.572;2023-01-29T14:52:48;95160.28;;;0.05;88.69
67434;BME280;54305;47.950;6.572;2023-01-29T14:55:34;95172.13;;;-0.10;88.42
67434;BME280;54305;47.950;6.572;2023-01-29T14:58:01;95164.94;;;-0.36;90.07
67434;BME280;54305;47.950;6.572;2023-01-29T15:00:32;95162.28;;;-0.68;90.89
67434;BME280;54305;47.950;6.572;2023-01-29T15:02:58;95169.88;;;-0.67;91.80
67434;BME280;54305;47.950;6.572;2023-01-29T15:05:28;95170.06;;;-0.36;91.15